sensor_id;sensor_type;location;lat;lon;timestamp;pressure;altitude;pressure_sealevel;temperature;humidity
70976;BME280;58635;51.198;6.010;2022-08-14T00:00:10;101011.66;;;27.45;35.26
70976;BME280;58635;51.198;6.010;2022-08-14T00:02:36;101003.03;;;27.39;35.34
70976;BME280;58635;51.198;6.010;2022-08-14T00:05:03;101005.78;;;27.34;35.49
70976;BME280;58635;51.198;6.010;2022-08-14T00:07:28;100999.34;;;27.26;35.51
70976;BME280;58635;51.198;6.010;2022-08-14T00:09:54;100996.00;;;27.21;35.43
70976;BME280;58635;51.198;6.010;2022-08-14T00:12:20;100991.59;;;27.16;35.23
70976;BME280;58635;51.198;6.010;2022-08-14T00:14:45;100992.50;;;27.12;35.42
70976;BME280;58635;51.198;6.010;2022-08-14T00:17:10;100993.06;;;27.08;35.21
70976;BME280;58635;51.198;6.010;2022-08-14T00:19:36;100975.19;;;27.00;35.31
70976;BME280;58635;51.198;6.010;2022-08-14T00:22:02;100973.31;;;27.01;35.51
70976;BME280;58635;51.198;6.010;2022-08-14T00:24:27;100975.75;;;26.97;35.32
70976;BME280;58635;51.198;6.010;2022-08-14T00:26:53;100971.34;;;26.93;35.24
70976;BME280;58635;51.198;6.010;2022-08-14T00:29:18;100973.53;;;26.91;35.03
70976;BME280;58635;51.198;6.010;2022-08-14T00:31:44;100968.81;;;26.88;35.10
70976;BME280;58635;51.198;6.010;2022-08-14T00:34:09;100965.97;;;26.84;34.99
70976;BME280;58635;51.198;6.010;2022-08-14T00:36:35;100964.38;;;26.83;34.87
70976;BME280;58635;51.198;6.010;2022-08-14T00:39:00;100967.66;;;26.80;34.53
70976;BME280;58635;51.198;6.010;2022-08-14T00:41:30;100968.44;;;26.80;34.61
70976;BME280;58635;51.198;6.010;2022-08-14T00:43:57;100959.69;;;26.80;34.40
70976;BME280;58635;51.198;6.010;2022-08-14T00:46:22;100953.59;;;26.79;34.49
70976;BME280;58635;51.198;6.010;2022-08-14T00:48:48;100948.59;;;26.78;34.24
70976;BME280;58635;51.198;6.010;2022-08-14T00:51:14;100944.38;;;26.77;33.89
70976;BME280;58635;51.198;6.010;2022-08-14T00:53:39;100941.72;;;26.77;33.93
70976;BME280;58635;51.198;6.010;2022-08-14T00:56:07;100946.25;;;26.76;33.91
70976;BME280;58635;51.198;6.010;2022-08-14T00:58:34;100943.28;;;26.78;33.65
70976;BME280;58635;51.198;6.010;2022-08-14T01:01:07;100941.72;;;26.77;33.64
70976;BME280;58635;51.198;6.010;2022-08-14T01:03:39;100931.09;;;26.77;33.88
70976;BME280;58635;51.198;6.010;2022-08-14T01:06:09;100917.06;;;26.76;33.62
70976;BME280;58635;51.198;6.010;2022-08-14T01:08:37;100918.41;;;26.74;33.61
70976;BME280;58635;51.198;6.010;2022-08-14T01:11:03;100923.72;;;26.74;33.65
70976;BME280;58635;51.198;6.010;2022-08-14T01:13:35;100915.75;;;26.74;33.63
70976;BME280;58635;51.198;6.010;2022-08-14T01:16:05;100914.19;;;26.73;33.58
70976;BME280;58635;51.198;6.010;2022-08-14T01:18:32;100908.09;;;26.72;33.53
70976;BME280;58635;51.198;6.010;2022-08-14T01:21:24;100905.75;;;26.71;33.66
70976;BME280;58635;51.198;6.010;2022-08-14T01:23:55;100905.56;;;26.67;33.66
70976;BME280;58635;51.198;6.010;2022-08-14T01:26:22;100897.31;;;26.69;33.53
70976;BME280;58635;51.198;6.010;2022-08-14T01:28:53;100897.31;;;26.69;33.90
70976;BME280;58635;51.198;6.010;2022-08-14T01:31:22;100898.09;;;26.69;33.75
70976;BME280;58635;51.198;6.010;2022-08-14T01:33:50;100897.31;;;26.69;33.66
70976;BME280;58635;51.198;6.010;2022-08-14T01:36:18;100888.56;;;26.68;33.94
70976;BME280;58635;51.198;6.010;2022-08-14T01:38:45;100892.28;;;26.67;34.16
70976;BME280;58635;51.198;6.010;2022-08-14T01:41:15;100888.38;;;26.65;34.34
70976;BME280;58635;51.198;6.010;2022-08-14T01:46:20;100890.81;;;26.61;34.44
70976;BME280;58635;51.198;6.010;2022-08-14T01:48:47;100892.22;;;26.59;34.58
70976;BME280;58635;51.198;6.010;2022-08-14T01:51:15;100887.19;;;26.57;34.52
70976;BME280;58635;51.198;6.010;2022-08-14T01:53:44;100885.94;;;26.55;34.66
70976;BME280;58635;51.198;6.010;2022-08-14T01:56:14;100888.88;;;26.53;34.72
70976;BME280;58635;51.198;6.010;2022-08-14T01:58:46;100888.38;;;26.51;34.68
70976;BME280;58635;51.198;6.010;2022-08-14T02:01:17;100889.75;;;26.48;34.72
70976;BME280;58635;51.198;6.010;2022-08-14T02:03:43;100881.31;;;26.46;34.63
70976;BME280;58635;51.198;6.010;2022-08-14T02:06:10;100886.44;;;26.43;35.03
70976;BME280;58635;51.198;6.010;2022-08-14T02:08:37;100873.47;;;26.41;35.41
70976;BME280;58635;51.198;6.010;2022-08-14T02:11:04;100879.34;;;26.38;35.33
70976;BME280;58635;51.198;6.010;2022-08-14T02:13:51;100883.38;;;26.36;35.27
70976;BME280;58635;51.198;6.010;2022-08-14T02:16:23;100874.94;;;26.34;35.61
70976;BME280;58635;51.198;6.010;2022-08-14T02:18:53;100880.53;;;26.32;35.81
70976;BME280;58635;51.198;6.010;2022-08-14T02:21:20;100874.75;;;26.30;35.93
70976;BME280;58635;51.198;6.010;2022-08-14T02:23:47;100880.34;;;26.29;36.14
70976;BME280;58635;51.198;6.010;2022-08-14T02:26:23;100877.69;;;26.29;35.85
70976;BME280;58635;51.198;6.010;2022-08-14T02:28:53;100880.34;;;26.29;35.92
70976;BME280;58635;51.198;6.010;2022-08-14T02:31:19;100873.75;;;26.26;36.26
70976;BME280;58635;51.198;6.010;2022-08-14T02:33:46;100883.56;;;26.26;36.47
70976;BME280;58635;51.198;6.010;2022-08-14T02:36:12;100874.81;;;26.25;36.30
70976;BME280;58635;51.198;6.010;2022-08-14T02:38:38;100875.13;;;26.23;36.42
70976;BME280;58635;51.198;6.010;2022-08-14T02:41:08;100874.63;;;26.21;36.43
70976;BME280;58635;51.198;6.010;2022-08-14T02:43:33;100879.16;;;26.21;36.38
70976;BME280;58635;51.198;6.010;2022-08-14T02:45:59;100874.47;;;26.18;36.98
70976;BME280;58635;51.198;6.010;2022-08-14T02:48:25;100868.94;;;26.14;36.92
70976;BME280;58635;51.198;6.010;2022-08-14T02:51:01;100860.81;;;26.11;37.19
70976;BME280;58635;51.198;6.010;2022-08-14T02:53:28;100864.25;;;26.11;37.07
70976;BME280;58635;51.198;6.010;2022-08-14T02:55:54;100866.41;;;26.09;36.99
70976;BME280;58635;51.198;6.010;2022-08-14T02:58:21;100862.47;;;26.07;37.43
70976;BME280;58635;51.198;6.010;2022-08-14T03:00:48;100855.41;;;26.02;37.12
70976;BME280;58635;51.198;6.010;2022-08-14T03:03:13;100854.41;;;25.98;37.54
70976;BME280;58635;51.198;6.010;2022-08-14T03:05:41;100852.06;;;25.97;37.61
70976;BME280;58635;51.198;6.010;2022-08-14T03:08:11;100847.84;;;25.96;37.79
70976;BME280;58635;51.198;6.010;2022-08-14T03:10:37;100844.72;;;25.93;37.71
70976;BME280;58635;51.198;6.010;2022-08-14T03:13:03;100838.13;;;25.91;37.94
70976;BME280;58635;51.198;6.010;2022-08-14T03:15:30;100835.28;;;25.87;37.89
70976;BME280;58635;51.198;6.010;2022-08-14T03:17:57;100841.38;;;25.88;37.96
70976;BME280;58635;51.198;6.010;2022-08-14T03:20:24;100841.66;;;25.86;38.17
70976;BME280;58635;51.198;6.010;2022-08-14T03:22:49;100846.47;;;25.84;38.17
70976;BME280;58635;51.198;6.010;2022-08-14T03:25:16;100842.25;;;25.83;38.50
70976;BME280;58635;51.198;6.010;2022-08-14T03:27:42;100845.97;;;25.82;38.03
70976;BME280;58635;51.198;6.010;2022-08-14T03:30:08;100839.91;;;25.82;38.41
70976;BME280;58635;51.198;6.010;2022-08-14T03:32:33;100841.78;;;25.81;38.46
70976;BME280;58635;51.198;6.010;2022-08-14T03:34:59;100835.16;;;25.79;38.62
70976;BME280;58635;51.198;6.010;2022-08-14T03:37:24;100841.53;;;25.78;38.31
70976;BME280;58635;51.198;6.010;2022-08-14T03:39:54;100833.59;;;25.78;38.59
70976;BME280;58635;51.198;6.010;2022-08-14T03:42:19;100836.53;;;25.76;38.88
70976;BME280;58635;51.198;6.010;2022-08-14T03:44:45;100834.97;;;25.75;38.64
70976;BME280;58635;51.198;6.010;2022-08-14T03:47:11;100832.63;;;25.74;38.55
70976;BME280;58635;51.198;6.010;2022-08-14T03:49:36;100837.13;;;25.73;39.18
70976;BME280;58635;51.198;6.010;2022-08-14T03:52:02;100828.72;;;25.71;38.82
70976;BME280;58635;51.198;6.010;2022-08-14T03:54:29;100830.03;;;25.69;39.05
70976;BME280;58635;51.198;6.010;2022-08-14T03:56:55;100822.38;;;25.67;39.00
70976;BME280;58635;51.198;6.010;2022-08-14T03:59:25;100829.06;;;25.64;39.42
70976;BME280;58635;51.198;6.010;2022-08-14T04:01:50;100830.13;;;25.63;38.96
70976;BME280;58635;51.198;6.010;2022-08-14T04:04:17;100818.25;;;25.61;39.29
70976;BME280;58635;51.198;6.010;2022-08-14T04:06:42;100826.50;;;25.59;39.35
70976;BME280;58635;51.198;6.010;2022-08-14T04:09:08;100822.28;;;25.58;39.41
70976;BME280;58635;51.198;6.010;2022-08-14T04:11:35;100822.56;;;25.57;39.54
70976;BME280;58635;51.198;6.010;2022-08-14T04:14:02;100816.28;;;25.53;39.33
70976;BME280;58635;51.198;6.010;2022-08-14T04:16:28;100817.66;;;25.50;39.69
70976;BME280;58635;51.198;6.010;2022-08-14T04:18:56;100817.94;;;25.49;39.46
70976;BME280;58635;51.198;6.010;2022-08-14T04:21:23;100817.47;;;25.47;39.50
70976;BME280;58635;51.198;6.010;2022-08-14T04:23:50;100818.25;;;25.47;39.55
70976;BME280;58635;51.198;6.010;2022-08-14T04:26:17;100815.91;;;25.46;39.79
70976;BME280;58635;51.198;6.010;2022-08-14T04:28:47;100815.91;;;25.46;39.93
70976;BME280;58635;51.198;6.010;2022-08-14T04:31:14;100814.28;;;25.45;39.63
70976;BME280;58635;51.198;6.010;2022-08-14T04:33:40;100807.13;;;25.45;39.72
70976;BME280;58635;51.198;6.010;2022-08-14T04:36:05;100807.44;;;25.44;39.76
70976;BME280;58635;51.198;6.010;2022-08-14T04:38:31;100806.34;;;25.45;40.12
70976;BME280;58635;51.198;6.010;2022-08-14T04:41:15;100795.28;;;25.43;39.84
70976;BME280;58635;51.198;6.010;2022-08-14T04:43:58;100792.91;;;25.41;40.03
70976;BME280;58635;51.198;6.010;2022-08-14T04:46:24;100795.28;;;25.43;39.70
70976;BME280;58635;51.198;6.010;2022-08-14T04:48:50;100788.13;;;25.43;39.97
70976;BME280;58635;51.198;6.010;2022-08-14T04:51:17;100794.72;;;25.46;39.83
70976;BME280;58635;51.198;6.010;2022-08-14T04:53:46;100788.03;;;25.48;40.18
70976;BME280;58635;51.198;6.010;2022-08-14T04:56:14;100793.03;;;25.50;40.24
70976;BME280;58635;51.198;6.010;2022-08-14T04:58:40;100784.31;;;25.49;39.86
70976;BME280;58635;51.198;6.010;2022-08-14T05:01:08;100786.38;;;25.52;39.83
70976;BME280;58635;51.198;6.010;2022-08-14T05:03:35;100791.06;;;25.55;40.11
70976;BME280;58635;51.198;6.010;2022-08-14T05:06:05;100782.56;;;25.58;39.98
70976;BME280;58635;51.198;6.010;2022-08-14T05:08:33;100783.81;;;25.61;39.97
70976;BME280;58635;51.198;6.010;2022-08-14T05:11:02;100781.06;;;25.66;40.30
70976;BME280;58635;51.198;6.010;2022-08-14T05:13:30;100786.31;;;25.71;39.98
70976;BME280;58635;51.198;6.010;2022-08-14T05:15:57;100785.13;;;25.77;40.06
70976;BME280;58635;51.198;6.010;2022-08-14T05:18:28;100784.75;;;25.84;39.69
70976;BME280;58635;51.198;6.010;2022-08-14T05:20:57;100780.13;;;25.89;40.18
70976;BME280;58635;51.198;6.010;2022-08-14T05:23:28;100773.34;;;25.97;39.96
70976;BME280;58635;51.198;6.010;2022-08-14T05:25:57;100769.50;;;26.03;40.37
70976;BME280;58635;51.198;6.010;2022-08-14T05:28:37;100778.16;;;26.09;40.25
70976;BME280;58635;51.198;6.010;2022-08-14T05:31:04;100776.63;;;26.16;39.80
70976;BME280;58635;51.198;6.010;2022-08-14T05:33:31;100778.59;;;26.24;39.67
70976;BME280;58635;51.198;6.010;2022-08-14T05:35:59;100776.50;;;26.35;39.52
70976;BME280;58635;51.198;6.010;2022-08-14T05:38:33;100777.09;;;26.46;39.22
70976;BME280;58635;51.198;6.010;2022-08-14T05:41:04;100769.69;;;26.57;39.41
70976;BME280;58635;51.198;6.010;2022-08-14T05:43:30;100774.16;;;26.70;39.29
70976;BME280;58635;51.198;6.010;2022-08-14T05:45:57;100771.44;;;26.84;39.54
70976;BME280;58635;51.198;6.010;2022-08-14T05:48:23;100768.25;;;26.95;38.90
70976;BME280;58635;51.198;6.010;2022-08-14T05:50:49;100768.50;;;27.07;38.97
70976;BME280;58635;51.198;6.010;2022-08-14T05:53:16;100775.00;;;27.24;38.54
70976;BME280;58635;51.198;6.010;2022-08-14T05:55:41;100773.34;;;27.36;38.29
70976;BME280;58635;51.198;6.010;2022-08-14T05:58:07;100777.16;;;27.53;37.90
70976;BME280;58635;51.198;6.010;2022-08-14T06:00:39;100783.47;;;27.65;37.86
70976;BME280;58635;51.198;6.010;2022-08-14T06:03:07;100777.88;;;27.76;37.80
70976;BME280;58635;51.198;6.010;2022-08-14T06:05:33;100773.84;;;27.87;37.93
70976;BME280;58635;51.198;6.010;2022-08-14T06:08:00;100768.25;;;27.97;37.70
70976;BME280;58635;51.198;6.010;2022-08-14T06:10:27;100768.41;;;28.09;37.35
70976;BME280;58635;51.198;6.010;2022-08-14T06:12:53;100770.47;;;28.21;37.28
70976;BME280;58635;51.198;6.010;2022-08-14T06:15:19;100765.75;;;28.26;37.12
70976;BME280;58635;51.198;6.010;2022-08-14T06:17:50;100771.72;;;28.41;36.85
70976;BME280;58635;51.198;6.010;2022-08-14T06:20:17;100770.63;;;28.50;36.98
70976;BME280;58635;51.198;6.010;2022-08-14T06:22:44;100773.78;;;28.61;36.64
70976;BME280;58635;51.198;6.010;2022-08-14T06:25:11;100765.16;;;28.73;36.74
70976;BME280;58635;51.198;6.010;2022-08-14T06:27:45;100771.38;;;28.86;36.53
70976;BME280;58635;51.198;6.010;2022-08-14T06:30:14;100774.22;;;28.98;36.07
70976;BME280;58635;51.198;6.010;2022-08-14T06:32:39;100774.50;;;29.14;35.91
70976;BME280;58635;51.198;6.010;2022-08-14T06:35:06;100770.53;;;29.28;35.37
70976;BME280;58635;51.198;6.010;2022-08-14T06:40:10;100758.34;;;29.57;34.73
70976;BME280;58635;51.198;6.010;2022-08-14T06:42:37;100762.81;;;29.74;34.72
70976;BME280;58635;51.198;6.010;2022-08-14T06:45:03;100760.69;;;29.88;34.55
70976;BME280;58635;51.198;6.010;2022-08-14T06:47:28;100752.66;;;29.96;34.44
70976;BME280;58635;51.198;6.010;2022-08-14T06:49:54;100754.63;;;30.08;33.95
70976;BME280;58635;51.198;6.010;2022-08-14T06:52:19;100741.66;;;30.19;33.83
70976;BME280;58635;51.198;6.010;2022-08-14T06:54:45;100749.25;;;30.29;33.94
70976;BME280;58635;51.198;6.010;2022-08-14T06:57:11;100757.22;;;30.38;33.48
70976;BME280;58635;51.198;6.010;2022-08-14T06:59:37;100746.13;;;30.48;33.65
70976;BME280;58635;51.198;6.010;2022-08-14T07:02:02;100739.47;;;30.54;33.49
70976;BME280;58635;51.198;6.010;2022-08-14T07:04:46;100736.09;;;30.66;33.03
70976;BME280;58635;51.198;6.010;2022-08-14T07:07:40;100742.38;;;30.82;32.82
70976;BME280;58635;51.198;6.010;2022-08-14T07:10:06;100733.16;;;30.92;32.61
70976;BME280;58635;51.198;6.010;2022-08-14T07:12:33;100745.09;;;31.06;32.44
70976;BME280;58635;51.198;6.010;2022-08-14T07:14:58;100744.53;;;31.13;32.03
70976;BME280;58635;51.198;6.010;2022-08-14T07:17:24;100737.41;;;31.17;32.26
70976;BME280;58635;51.198;6.010;2022-08-14T07:19:49;100734.53;;;31.22;31.79
70976;BME280;58635;51.198;6.010;2022-08-14T07:22:15;100729.78;;;31.28;31.87
70976;BME280;58635;51.198;6.010;2022-08-14T07:24:40;100738.00;;;31.35;31.90
70976;BME280;58635;51.198;6.010;2022-08-14T07:27:06;100736.00;;;31.44;31.59
70976;BME280;58635;51.198;6.010;2022-08-14T07:29:31;100732.88;;;31.54;31.54
70976;BME280;58635;51.198;6.010;2022-08-14T07:31:57;100734.31;;;31.64;31.25
70976;BME280;58635;51.198;6.010;2022-08-14T07:34:23;100736.84;;;31.72;31.46
70976;BME280;58635;51.198;6.010;2022-08-14T07:36:48;100732.19;;;31.82;31.31
70976;BME280;58635;51.198;6.010;2022-08-14T07:39:14;100727.41;;;31.87;30.95
70976;BME280;58635;51.198;6.010;2022-08-14T07:41:40;100729.47;;;31.94;31.29
70976;BME280;58635;51.198;6.010;2022-08-14T07:44:05;100729.34;;;32.03;30.99
70976;BME280;58635;51.198;6.010;2022-08-14T07:46:32;100724.88;;;32.07;31.01
70976;BME280;58635;51.198;6.010;2022-08-14T07:48:58;100714.84;;;32.04;31.11
70976;BME280;58635;51.198;6.010;2022-08-14T07:51:23;100726.25;;;32.00;31.07
70976;BME280;58635;51.198;6.010;2022-08-14T07:53:49;100731.16;;;31.98;31.35
70976;BME280;58635;51.198;6.010;2022-08-14T07:56:16;100735.81;;;32.02;31.58
70976;BME280;58635;51.198;6.010;2022-08-14T07:58:41;100737.38;;;32.03;31.41
70976;BME280;58635;51.198;6.010;2022-08-14T08:01:07;100735.47;;;32.03;31.34
70976;BME280;58635;51.198;6.010;2022-08-14T08:03:33;100733.91;;;32.02;31.41
70976;BME280;58635;51.198;6.010;2022-08-14T08:06:00;100732.81;;;32.03;31.15
70976;BME280;58635;51.198;6.010;2022-08-14T08:08:29;100730.47;;;32.02;31.22
70976;BME280;58635;51.198;6.010;2022-08-14T08:10:57;100724.78;;;32.03;31.45
70976;BME280;58635;51.198;6.010;2022-08-14T08:13:25;100719.09;;;32.05;31.22
70976;BME280;58635;51.198;6.010;2022-08-14T08:15:53;100731.34;;;32.06;31.33
70976;BME280;58635;51.198;6.010;2022-08-14T08:18:21;100720.75;;;32.09;31.57
70976;BME280;58635;51.198;6.010;2022-08-14T08:20:49;100711.34;;;32.15;31.43
70976;BME280;58635;51.198;6.010;2022-08-14T08:23:17;100709.88;;;32.18;31.21
70976;BME280;58635;51.198;6.010;2022-08-14T08:25:46;100715.34;;;32.21;31.00
70976;BME280;58635;51.198;6.010;2022-08-14T08:28:17;100714.66;;;32.24;31.01
70976;BME280;58635;51.198;6.010;2022-08-14T08:30:50;100718.47;;;32.23;30.86
70976;BME280;58635;51.198;6.010;2022-08-14T08:33:20;100718.91;;;32.25;30.97
70976;BME280;58635;51.198;6.010;2022-08-14T08:35:46;100727.81;;;32.29;30.48
70976;BME280;58635;51.198;6.010;2022-08-14T08:38:18;100725.59;;;32.32;30.70
70976;BME280;58635;51.198;6.010;2022-08-14T08:40:46;100726.13;;;32.37;30.46
70976;BME280;58635;51.198;6.010;2022-08-14T08:43:20;100722.31;;;32.38;30.43
70976;BME280;58635;51.198;6.010;2022-08-14T08:46:07;100725.53;;;32.44;30.46
70976;BME280;58635;51.198;6.010;2022-08-14T08:51:09;100709.06;;;32.57;30.49
70976;BME280;58635;51.198;6.010;2022-08-14T08:53:43;100713.59;;;32.69;30.09
70976;BME280;58635;51.198;6.010;2022-08-14T08:56:09;100704.94;;;32.76;30.33
70976;BME280;58635;51.198;6.010;2022-08-14T08:58:36;100705.81;;;32.80;29.70
70976;BME280;58635;51.198;6.010;2022-08-14T09:01:01;100707.13;;;32.86;29.58
70976;BME280;58635;51.198;6.010;2022-08-14T09:03:28;100707.66;;;32.92;29.25
70976;BME280;58635;51.198;6.010;2022-08-14T09:05:57;100701.69;;;32.98;29.39
70976;BME280;58635;51.198;6.010;2022-08-14T09:08:24;100696.84;;;33.04;29.37
70976;BME280;58635;51.198;6.010;2022-08-14T09:10:51;100690.78;;;33.07;29.44
70976;BME280;58635;51.198;6.010;2022-08-14T09:13:17;100678.53;;;33.06;29.27
70976;BME280;58635;51.198;6.010;2022-08-14T09:15:45;100683.94;;;33.09;29.41
70976;BME280;58635;51.198;6.010;2022-08-14T09:18:13;100676.75;;;33.13;29.17
70976;BME280;58635;51.198;6.010;2022-08-14T09:20:40;100684.03;;;33.13;28.94
70976;BME280;58635;51.198;6.010;2022-08-14T09:23:08;100676.41;;;33.15;28.91
70976;BME280;58635;51.198;6.010;2022-08-14T09:25:34;100678.84;;;33.20;28.78
70976;BME280;58635;51.198;6.010;2022-08-14T09:28:01;100676.59;;;33.22;28.90
70976;BME280;58635;51.198;6.010;2022-08-14T09:30:27;100673.56;;;33.24;28.64
70976;BME280;58635;51.198;6.010;2022-08-14T09:35:40;100685.22;;;33.31;28.80
70976;BME280;58635;51.198;6.010;2022-08-14T09:41:29;100661.50;;;33.33;28.51
70976;BME280;58635;51.198;6.010;2022-08-14T09:44:08;100662.75;;;33.36;28.10
70976;BME280;58635;51.198;6.010;2022-08-14T09:46:51;100660.16;;;33.39;27.90
70976;BME280;58635;51.198;6.010;2022-08-14T09:49:29;100654.09;;;33.42;27.72
70976;BME280;58635;51.198;6.010;2022-08-14T09:52:05;100656.75;;;33.42;27.85
70976;BME280;58635;51.198;6.010;2022-08-14T09:57:05;100648.78;;;33.46;27.23
70976;BME280;58635;51.198;6.010;2022-08-14T09:59:42;100643.59;;;33.53;27.32
70976;BME280;58635;51.198;6.010;2022-08-14T10:02:18;100639.47;;;33.59;27.38
70976;BME280;58635;51.198;6.010;2022-08-14T10:04:57;100637.66;;;33.63;27.21
70976;BME280;58635;51.198;6.010;2022-08-14T10:07:33;100637.00;;;33.70;26.93
70976;BME280;58635;51.198;6.010;2022-08-14T10:10:00;100632.50;;;33.74;27.18
70976;BME280;58635;51.198;6.010;2022-08-14T10:12:41;100629.97;;;33.81;26.81
70976;BME280;58635;51.198;6.010;2022-08-14T10:15:15;100612.72;;;33.82;26.81
70976;BME280;58635;51.198;6.010;2022-08-14T10:17:41;100616.31;;;33.86;26.57
70976;BME280;58635;51.198;6.010;2022-08-14T10:20:08;100615.28;;;33.94;26.26
70976;BME280;58635;51.198;6.010;2022-08-14T10:22:37;100611.19;;;34.00;26.25
70976;BME280;58635;51.198;6.010;2022-08-14T10:25:13;100613.63;;;34.09;25.74
70976;BME280;58635;51.198;6.010;2022-08-14T10:27:39;100610.72;;;34.18;25.33
70976;BME280;58635;51.198;6.010;2022-08-14T10:30:16;100605.47;;;34.25;25.22
70976;BME280;58635;51.198;6.010;2022-08-14T10:32:46;100608.63;;;34.30;25.34
70976;BME280;58635;51.198;6.010;2022-08-14T10:35:13;100596.84;;;34.35;24.91
70976;BME280;58635;51.198;6.010;2022-08-14T10:37:52;100590.47;;;34.43;24.85
70976;BME280;58635;51.198;6.010;2022-08-14T10:40:26;100590.59;;;34.50;24.21
70976;BME280;58635;51.198;6.010;2022-08-14T10:42:52;100584.53;;;34.57;24.42
70976;BME280;58635;51.198;6.010;2022-08-14T10:45:23;100584.25;;;34.62;24.54
70976;BME280;58635;51.198;6.010;2022-08-14T10:47:49;100566.25;;;34.66;24.87
70976;BME280;58635;51.198;6.010;2022-08-14T10:50:15;100585.19;;;34.73;24.45
70976;BME280;58635;51.198;6.010;2022-08-14T10:52:41;100576.38;;;34.76;24.10
70976;BME280;58635;51.198;6.010;2022-08-14T10:55:10;100584.94;;;34.82;24.00
70976;BME280;58635;51.198;6.010;2022-08-14T10:57:54;100588.56;;;34.93;23.96
70976;BME280;58635;51.198;6.010;2022-08-14T11:00:23;100577.63;;;35.09;24.08
70976;BME280;58635;51.198;6.010;2022-08-14T11:03:08;100584.06;;;35.31;23.53
70976;BME280;58635;51.198;6.010;2022-08-14T11:05:45;100574.63;;;35.44;23.46
70976;BME280;58635;51.198;6.010;2022-08-14T11:08:12;100573.22;;;35.54;23.19
70976;BME280;58635;51.198;6.010;2022-08-14T11:10:44;100580.25;;;35.65;23.55
70976;BME280;58635;51.198;6.010;2022-08-14T11:13:21;100581.94;;;35.81;23.15
70976;BME280;58635;51.198;6.010;2022-08-14T11:15:48;100566.34;;;35.97;23.17
70976;BME280;58635;51.198;6.010;2022-08-14T11:18:15;100563.00;;;36.07;23.26
70976;BME280;58635;51.198;6.010;2022-08-14T11:20:47;100553.09;;;36.18;22.79
70976;BME280;58635;51.198;6.010;2022-08-14T11:23:14;100552.78;;;36.30;22.10
70976;BME280;58635;51.198;6.010;2022-08-14T11:25:43;100558.31;;;36.45;21.86
70976;BME280;58635;51.198;6.010;2022-08-14T11:28:11;100549.53;;;36.58;21.38
70976;BME280;58635;51.198;6.010;2022-08-14T11:30:43;100555.41;;;36.71;21.33
70976;BME280;58635;51.198;6.010;2022-08-14T11:33:09;100549.25;;;36.71;21.03
70976;BME280;58635;51.198;6.010;2022-08-14T11:35:35;100553.53;;;36.79;21.15
70976;BME280;58635;51.198;6.010;2022-08-14T11:38:03;100554.38;;;36.90;20.45
70976;BME280;58635;51.198;6.010;2022-08-14T11:40:34;100537.88;;;36.99;21.21
70976;BME280;58635;51.198;6.010;2022-08-14T11:43:03;100532.53;;;37.13;20.85
70976;BME280;58635;51.198;6.010;2022-08-14T11:45:31;100528.31;;;37.23;20.83
70976;BME280;58635;51.198;6.010;2022-08-14T11:47:59;100531.47;;;37.32;20.60
70976;BME280;58635;51.198;6.010;2022-08-14T11:50:29;100522.16;;;37.26;20.95
70976;BME280;58635;51.198;6.010;2022-08-14T11:52:57;100522.91;;;37.15;20.56
70976;BME280;58635;51.198;6.010;2022-08-14T11:55:24;100518.28;;;37.12;20.72
70976;BME280;58635;51.198;6.010;2022-08-14T11:58:05;100517.47;;;37.05;20.86
70976;BME280;58635;51.198;6.010;2022-08-14T12:00:44;100517.50;;;37.15;20.66
70976;BME280;58635;51.198;6.010;2022-08-14T12:03:10;100512.97;;;37.34;20.58
70976;BME280;58635;51.198;6.010;2022-08-14T12:05:38;100503.38;;;37.58;20.58
70976;BME280;58635;51.198;6.010;2022-08-14T12:08:04;100507.63;;;37.73;20.37
70976;BME280;58635;51.198;6.010;2022-08-14T12:10:39;100490.31;;;37.81;20.29
70976;BME280;58635;51.198;6.010;2022-08-14T12:13:16;100493.78;;;37.96;20.28
70976;BME280;58635;51.198;6.010;2022-08-14T12:15:44;100501.50;;;38.15;19.78
70976;BME280;58635;51.198;6.010;2022-08-14T12:18:11;100492.59;;;38.36;19.90
70976;BME280;58635;51.198;6.010;2022-08-14T12:20:39;100492.56;;;38.47;19.25
70976;BME280;58635;51.198;6.010;2022-08-14T12:23:20;100491.47;;;38.30;19.25
70976;BME280;58635;51.198;6.010;2022-08-14T12:25:46;100483.75;;;38.18;19.44
70976;BME280;58635;51.198;6.010;2022-08-14T12:28:12;100466.38;;;38.15;19.41
70976;BME280;58635;51.198;6.010;2022-08-14T12:30:42;100456.75;;;38.25;19.49
70976;BME280;58635;51.198;6.010;2022-08-14T12:33:25;100446.28;;;38.34;19.35
70976;BME280;58635;51.198;6.010;2022-08-14T12:35:53;100455.56;;;38.37;19.29
70976;BME280;58635;51.198;6.010;2022-08-14T12:38:40;100455.91;;;38.46;19.12
70976;BME280;58635;51.198;6.010;2022-08-14T12:43:53;100455.06;;;38.77;18.55
70976;BME280;58635;51.198;6.010;2022-08-14T12:48:51;100442.91;;;39.07;18.61
70976;BME280;58635;51.198;6.010;2022-08-14T12:51:23;100451.41;;;39.20;18.38
70976;BME280;58635;51.198;6.010;2022-08-14T12:53:52;100445.19;;;39.19;18.17
70976;BME280;58635;51.198;6.010;2022-08-14T12:56:19;100427.41;;;39.18;18.08
70976;BME280;58635;51.198;6.010;2022-08-14T12:58:50;100432.03;;;39.25;18.08
70976;BME280;58635;51.198;6.010;2022-08-14T13:01:27;100437.44;;;39.25;17.94
70976;BME280;58635;51.198;6.010;2022-08-14T13:04:11;100424.69;;;39.25;18.05
70976;BME280;58635;51.198;6.010;2022-08-14T13:06:41;100431.97;;;39.32;17.89
70976;BME280;58635;51.198;6.010;2022-08-14T13:09:10;100420.69;;;39.44;17.60
70976;BME280;58635;51.198;6.010;2022-08-14T13:11:45;100422.16;;;39.52;17.60
70976;BME280;58635;51.198;6.010;2022-08-14T13:14:13;100417.47;;;39.60;17.70
70976;BME280;58635;51.198;6.010;2022-08-14T13:16:41;100413.97;;;39.63;17.38
70976;BME280;58635;51.198;6.010;2022-08-14T13:19:10;100406.66;;;39.60;17.07